Time;durP1;ratioP1;P1;durP2;ratioP2;P2;SDS_P1;SDS_P2;PMS_P1;PMS_P2;Temp;Humidity;BMP_temperature;BMP_pressure;BME280_temperature;BME280_humidity;BME280_pressure;Samples;Min_cycle;Max_cycle;Signal;HPM_P1;HPM_P2
2022/03/17 00:02:26;;;;;;;10.23;4.82;;;;;;;11.04;77.63;101729.53;5053991;28;20626;-63
2022/03/17 00:04:53;;;;;;;7.82;5.07;;;;;;;10.99;76.92;101735.09;5055554;28;20060;-63
2022/03/17 00:07:21;;;;;;;10.70;4.95;;;;;;;10.97;77.42;101742.81;5052403;28;20053;-65
2022/03/17 00:09:48;;;;;;;8.95;4.90;;;;;;;10.91;77.20;101757.78;5035092;28;20045;-63
2022/03/17 00:12:15;;;;;;;8.88;5.20;;;;;;;10.77;78.03;101751.31;5040975;28;20059;-63
2022/03/17 00:14:43;;;;;;;11.40;5.55;;;;;;;11.03;77.25;101756.28;5055518;28;20049;-64
2022/03/17 00:17:10;;;;;;;7.28;5.53;;;;;;;10.96;77.48;101757.72;5050755;28;20044;-63
2022/03/17 00:19:38;;;;;;;9.60;6.15;;;;;;;10.87;77.46;101768.56;5047539;28;20053;-64
2022/03/17 00:22:09;;;;;;;9.15;6.57;;;;;;;10.87;77.87;101771.31;5041976;28;20055;-64
2022/03/17 00:24:37;;;;;;;8.27;6.18;;;;;;;10.82;77.94;101767.78;5054448;28;20438;-63
2022/03/17 00:27:05;;;;;;;11.93;6.43;;;;;;;10.84;77.76;101777.44;5039668;28;20392;-64
2022/03/17 00:29:34;;;;;;;10.77;7.10;;;;;;;10.90;77.78;101778.19;5033247;28;20061;-64
2022/03/17 00:32:04;;;;;;;8.68;6.70;;;;;;;10.80;78.17;101773.59;5048028;28;20052;-64
2022/03/17 00:34:32;;;;;;;9.80;7.57;;;;;;;10.75;78.27;101781.91;5047269;28;20416;-64
2022/03/17 00:36:59;;;;;;;10.27;7.43;;;;;;;10.68;79.79;101781.41;5042430;28;20053;-64
2022/03/17 00:39:26;;;;;;;12.20;8.60;;;;;;;10.69;78.85;101788.56;5037232;28;20188;-63
2022/03/17 00:41:53;;;;;;;14.10;9.65;;;;;;;10.70;78.87;101786.63;5037914;28;20053;-63
2022/03/17 00:44:21;;;;;;;15.73;9.60;;;;;;;10.93;79.25;101786.69;5055380;28;20049;-62
2022/03/17 00:46:48;;;;;;;12.45;9.90;;;;;;;10.73;78.71;101799.81;5052743;28;20056;-64
2022/03/17 00:49:16;;;;;;;14.55;10.25;;;;;;;10.60;79.42;101808.75;5034920;28;20060;-65
2022/03/17 00:51:43;;;;;;;18.05;11.75;;;;;;;10.54;79.87;101802.47;5051186;28;20060;-63
2022/03/17 00:54:10;;;;;;;17.33;11.55;;;;;;;10.79;79.06;101810.50;5055305;28;20547;-63
2022/03/17 00:56:38;;;;;;;14.60;11.60;;;;;;;10.58;79.82;101822.84;5054587;28;20060;-63
2022/03/17 00:59:05;;;;;;;16.55;12.57;;;;;;;10.48;80.31;101811.06;5038196;28;20204;-63
2022/03/17 01:01:33;;;;;;;13.98;11.75;;;;;;;10.47;81.50;101817.66;5057212;28;20045;-63
2022/03/17 01:04:00;;;;;;;15.68;12.23;;;;;;;10.62;80.17;101832.16;5040222;28;20052;-63
2022/03/17 01:06:28;;;;;;;16.70;11.75;;;;;;;10.54;79.75;101819.00;5042797;28;20044;-63
2022/03/17 01:08:55;;;;;;;19.42;12.57;;;;;;;10.56;80.11;101819.53;5039182;28;20056;-63
2022/03/17 01:11:22;;;;;;;16.50;12.07;;;;;;;10.35;81.17;101833.72;5037291;28;20547;-63
2022/03/17 01:13:50;;;;;;;18.55;13.27;;;;;;;10.23;82.30;101833.25;5050254;28;20117;-62
2022/03/17 01:16:17;;;;;;;15.20;12.45;;;;;;;10.36;81.77;101832.59;5045212;28;20056;-64
2022/03/17 01:18:44;;;;;;;18.38;13.25;;;;;;;10.38;81.33;101835.91;5036962;28;20061;-62
2022/03/17 01:21:12;;;;;;;16.98;11.70;;;;;;;10.42;81.31;101832.31;5066554;28;20065;-63
2022/03/17 01:23:39;;;;;;;17.35;11.88;;;;;;;10.43;81.61;101841.38;5050687;28;20053;-63
2022/03/17 01:26:07;;;;;;;14.70;12.05;;;;;;;10.35;81.77;101839.22;5054783;28;20052;-62
2022/03/17 01:28:34;;;;;;;17.23;12.68;;;;;;;10.44;81.48;101843.88;5038004;28;20041;-64
2022/03/17 01:31:01;;;;;;;18.38;12.80;;;;;;;10.53;80.91;101852.34;5045712;28;20049;-64
2022/03/17 01:33:30;;;;;;;15.35;12.30;;;;;;;10.47;81.13;101859.81;5054863;28;20408;-62
2022/03/17 01:35:57;;;;;;;16.83;12.65;;;;;;;10.46;81.10;101860.09;5054840;28;20612;-62
2022/03/17 01:38:24;;;;;;;18.80;12.57;;;;;;;10.70;80.95;101867.38;5039591;28;20547;-62
2022/03/17 01:40:52;;;;;;;16.15;12.48;;;;;;;10.34;82.09;101843.91;5047036;28;20057;-63
2022/03/17 01:43:19;;;;;;;18.92;13.85;;;;;;;10.42;81.17;101862.59;5054408;28;20071;-63
2022/03/17 01:45:47;;;;;;;15.60;12.07;;;;;;;10.39;81.30;101865.09;5041051;28;20049;-63
2022/03/17 01:48:14;;;;;;;15.65;12.10;;;;;;;10.40;81.88;101869.47;5042184;28;20429;-63
2022/03/17 01:50:42;;;;;;;16.48;12.35;;;;;;;10.19;82.53;101877.88;5035420;28;20396;-63
2022/03/17 01:53:09;;;;;;;14.00;11.57;;;;;;;10.37;81.55;101870.06;5039825;28;20049;-63
2022/03/17 01:55:37;;;;;;;15.82;12.82;;;;;;;10.37;81.46;101875.56;5055159;28;20053;-62
2022/03/17 01:58:05;;;;;;;17.15;12.65;;;;;;;10.30;81.50;101869.56;5037146;28;20045;-63
2022/03/17 02:00:33;;;;;;;15.30;11.90;;;;;;;10.31;81.76;101883.03;5050454;28;20048;-62
2022/03/17 02:03:00;;;;;;;14.93;12.07;;;;;;;10.17;82.39;101880.06;5072186;28;20053;-62
2022/03/17 02:05:28;;;;;;;17.73;12.82;;;;;;;10.30;82.45;101888.81;5057700;28;20055;-62
2022/03/17 02:07:56;;;;;;;16.05;12.23;;;;;;;10.36;81.67;101885.75;5036996;28;20067;-63
2022/03/17 02:10:23;;;;;;;17.05;12.02;;;;;;;10.36;81.95;101890.44;5036527;28;20673;-62
2022/03/17 02:13:08;;;;;;;18.52;12.88;;;;;;;10.43;81.37;101897.28;5037561;28;20053;-62
2022/03/17 02:15:36;;;;;;;17.55;11.68;;;;;;;10.29;82.11;101906.47;5037489;28;20060;-62
2022/03/17 02:18:07;;;;;;;19.35;12.20;;;;;;;10.16;82.51;101907.91;5048341;28;20052;-63
2022/03/17 02:20:36;;;;;;;15.77;12.35;;;;;;;10.13;82.78;101909.28;5042058;28;20060;-62
2022/03/17 02:25:52;;;;;;;15.60;11.65;;;;;;;10.13;81.94;101923.03;5036251;28;20423;-63
2022/03/17 02:28:20;;;;;;;15.93;12.32;;;;;;;10.05;82.57;101911.75;5050812;28;20060;-62
2022/03/17 02:30:48;;;;;;;15.93;11.55;;;;;;;9.99;82.27;101932.13;5029874;28;20049;-62
2022/03/17 02:33:16;;;;;;;16.85;11.55;;;;;;;10.10;82.15;101911.75;5017583;28;20073;-63
2022/03/17 02:35:45;;;;;;;18.98;11.35;;;;;;;10.20;81.78;101912.53;5035334;28;20057;-62
2022/03/17 02:38:13;;;;;;;16.90;11.40;;;;;;;10.06;81.78;101916.97;5018676;28;20046;-63
2022/03/17 02:40:46;;;;;;;16.75;11.50;;;;;;;10.06;81.97;101913.38;5018387;28;20061;-63
2022/03/17 02:43:17;;;;;;;16.02;11.82;;;;;;;10.11;81.49;101910.66;5015483;28;20065;-61
2022/03/17 02:45:45;;;;;;;14.65;10.90;;;;;;;10.13;81.67;101917.53;5033492;28;20052;-62
2022/03/17 02:48:13;;;;;;;14.52;11.00;;;;;;;10.19;81.19;101932.09;5067591;28;20057;-63
2022/03/17 02:50:40;;;;;;;15.15;11.05;;;;;;;10.08;81.41;101947.84;5017619;28;20049;-62
2022/03/17 02:53:09;;;;;;;16.45;10.90;;;;;;;9.91;81.98;101968.50;5017470;28;20514;-63
2022/03/17 02:55:41;;;;;;;16.20;10.93;;;;;;;9.91;82.77;101949.22;5033242;28;20064;-63
2022/03/17 02:58:09;;;;;;;13.07;10.15;;;;;;;10.05;81.98;101942.88;5037049;28;20117;-63
2022/03/17 03:00:37;;;;;;;16.70;11.20;;;;;;;9.83;82.81;101953.34;5034301;28;20053;-62
2022/03/17 03:03:08;;;;;;;16.02;10.95;;;;;;;9.98;82.37;101961.59;5040298;28;20060;-62
2022/03/17 03:05:35;;;;;;;15.98;11.23;;;;;;;9.79;83.10;101963.28;5046739;28;20053;-63
2022/03/17 03:08:03;;;;;;;18.05;11.55;;;;;;;9.83;83.23;101969.88;5055392;28;20052;-62
2022/03/17 03:10:31;;;;;;;13.90;9.98;;;;;;;9.75;83.27;101967.69;5045656;28;20053;-62
2022/03/17 03:12:59;;;;;;;16.00;10.80;;;;;;;9.79;83.16;101979.81;5054885;28;20060;-63
2022/03/17 03:15:26;;;;;;;14.18;10.98;;;;;;;9.86;83.06;101968.50;5048626;28;20053;-61
2022/03/17 03:17:55;;;;;;;15.27;11.05;;;;;;;9.79;82.65;101978.97;5034645;28;20523;-62
2022/03/17 03:20:23;;;;;;;14.63;10.70;;;;;;;9.82;82.14;101975.66;5038257;28;20053;-62
2022/03/17 03:22:50;;;;;;;15.25;11.13;;;;;;;9.78;81.95;101975.38;5044376;28;20053;-63
2022/03/17 03:25:18;;;;;;;14.40;10.07;;;;;;;9.81;81.53;101977.59;5032230;28;20600;-62
2022/03/17 03:27:45;;;;;;;17.13;9.93;;;;;;;9.92;80.84;101979.22;5048928;28;20050;-62
2022/03/17 03:30:14;;;;;;;14.40;10.23;;;;;;;9.92;80.32;101979.22;5050556;28;20069;-62
2022/03/17 03:32:44;;;;;;;16.98;10.52;;;;;;;9.63;80.79;101980.91;5048380;28;20516;-62
2022/03/17 03:37:59;;;;;;;16.35;10.10;;;;;;;9.38;81.12;101996.59;5034066;28;20382;-62
2022/03/17 03:40:26;;;;;;;17.63;10.00;;;;;;;9.62;80.83;102011.44;5056338;28;20063;-63
2022/03/17 03:42:54;;;;;;;14.63;9.50;;;;;;;9.56;80.23;102009.78;5052125;28;20053;-62
2022/03/17 03:45:21;;;;;;;14.65;9.55;;;;;;;9.45;80.36;102008.97;5036256;28;20053;-63
2022/03/17 03:47:49;;;;;;;17.15;10.30;;;;;;;9.52;80.15;102022.47;5051139;28;20408;-63
2022/03/17 03:50:16;;;;;;;15.35;10.38;;;;;;;9.38;80.60;102041.41;5036119;28;20080;-62
2022/03/17 03:52:43;;;;;;;14.50;10.10;;;;;;;9.43;80.37;102035.09;5031183;28;20053;-62
2022/03/17 03:55:11;;;;;;;14.77;10.45;;;;;;;9.44;80.20;102042.25;5035789;28;20057;-62
2022/03/17 03:57:38;;;;;;;13.80;9.93;;;;;;;9.46;80.07;102049.13;5039965;28;20091;-63
2022/03/17 04:02:52;;;;;;;14.45;10.15;;;;;;;9.23;80.30;102068.88;5062411;28;20124;-63
2022/03/17 04:05:22;;;;;;;13.75;9.85;;;;;;;9.26;79.93;102068.34;5042766;28;20057;-62
2022/03/17 04:07:49;;;;;;;16.63;10.30;;;;;;;9.08;80.13;102058.66;5044105;28;20053;-63
2022/03/17 04:10:21;;;;;;;13.68;9.05;;;;;;;9.13;79.28;102069.66;5033350;28;20057;-63
2022/03/17 04:12:49;;;;;;;12.95;8.40;;;;;;;9.26;78.27;102073.03;5048736;28;20120;-62
2022/03/17 04:15:16;;;;;;;10.45;7.35;;;;;;;9.28;77.07;102076.31;5032712;28;20057;-63
2022/03/17 04:17:44;;;;;;;11.63;7.30;;;;;;;9.28;76.97;102099.13;5048897;28;20049;-62
2022/03/17 04:20:11;;;;;;;12.88;7.10;;;;;;;9.04;76.95;102089.72;5047404;28;20045;-62
2022/03/17 04:22:38;;;;;;;11.40;7.13;;;;;;;9.03;76.73;102097.13;5028259;28;20045;-62
2022/03/17 04:25:06;;;;;;;12.30;6.85;;;;;;;9.12;76.60;102093.88;5040466;28;20459;-62
2022/03/17 04:27:34;;;;;;;12.82;7.20;;;;;;;9.11;75.95;102098.53;5051265;28;20408;-62
2022/03/17 04:30:01;;;;;;;15.02;6.38;;;;;;;8.99;76.11;102098.78;5061565;28;20057;-62
2022/03/17 04:32:28;;;;;;;12.75;6.57;;;;;;;9.05;76.39;102111.44;5048595;28;20052;-62
2022/03/17 04:34:55;;;;;;;14.30;6.40;;;;;;;9.37;75.28;102127.75;5043553;28;20123;-62
2022/03/17 04:37:23;;;;;;;14.98;6.68;;;;;;;9.20;74.94;102120.84;5054952;28;20057;-63
2022/03/17 04:39:51;;;;;;;9.48;6.50;;;;;;;9.17;75.68;102113.13;5055394;28;20511;-63
2022/03/17 04:42:18;;;;;;;11.80;6.72;;;;;;;9.24;75.57;102117.25;5041355;28;20060;-63
2022/03/17 04:44:45;;;;;;;11.80;6.68;;;;;;;9.40;75.21;102129.13;5045710;28;20074;-63
2022/03/17 04:47:13;;;;;;;12.73;6.60;;;;;;;9.03;76.50;102127.38;5048065;28;20571;-63
2022/03/17 04:49:40;;;;;;;11.40;6.15;;;;;;;9.23;75.87;102134.88;5026859;28;20067;-63
2022/03/17 04:54:54;;;;;;;14.00;5.43;;;;;;;9.22;75.42;102138.72;5034641;28;20057;-63
2022/03/17 04:57:24;;;;;;;13.07;5.75;;;;;;;9.02;75.71;102142.22;5048326;28;20072;-63
2022/03/17 04:59:51;;;;;;;12.68;6.22;;;;;;;8.76;77.28;102148.69;5048267;28;20488;-63
2022/03/17 05:02:18;;;;;;;11.82;6.18;;;;;;;8.75;77.90;102158.00;5046740;28;20512;-63
2022/03/17 05:04:46;;;;;;;10.45;6.18;;;;;;;8.78;77.70;102152.00;5038696;28;20048;-63
2022/03/17 05:07:13;;;;;;;11.68;6.82;;;;;;;8.80;77.61;102159.97;5054667;28;20076;-63
2022/03/17 05:09:40;;;;;;;11.85;6.15;;;;;;;8.91;77.17;102157.00;5050051;28;20508;-63
2022/03/17 05:12:09;;;;;;;9.10;5.93;;;;;;;8.73;77.15;102156.63;5040482;28;20064;-63
2022/03/17 05:14:36;;;;;;;14.98;6.10;;;;;;;8.97;76.62;102160.59;5038776;28;20048;-64
2022/03/17 05:17:04;;;;;;;11.38;5.63;;;;;;;9.11;75.74;102178.25;5054465;28;20060;-64
2022/03/17 05:19:31;;;;;;;13.43;6.40;;;;;;;8.94;75.61;102161.94;5039665;28;20045;-64
2022/03/17 05:21:58;;;;;;;10.68;5.22;;;;;;;8.84;76.27;102174.81;5043420;28;20049;-64
2022/03/17 05:24:26;;;;;;;9.82;5.30;;;;;;;8.74;76.38;102180.25;5038251;28;20052;-63
2022/03/17 05:26:54;;;;;;;12.88;5.60;;;;;;;8.69;77.06;102196.69;5034847;28;20404;-63
2022/03/17 05:29:21;;;;;;;9.15;5.07;;;;;;;8.75;76.63;102190.97;5037897;28;20445;-63
2022/03/17 05:31:49;;;;;;;9.57;6.05;;;;;;;8.78;77.07;102204.19;5045531;28;20061;-63
2022/03/17 05:34:16;;;;;;;9.82;4.72;;;;;;;8.76;76.72;102200.03;5041365;28;20053;-62
2022/03/17 05:36:45;;;;;;;8.10;5.15;;;;;;;8.71;76.88;102206.34;5058672;28;20057;-63
2022/03/17 05:39:12;;;;;;;12.43;5.93;;;;;;;8.73;76.86;102203.31;5043472;28;20056;-63
2022/03/17 05:41:39;;;;;;;12.98;5.22;;;;;;;8.84;76.85;102205.88;5057870;28;20068;-65
2022/03/17 05:44:08;;;;;;;11.15;5.07;;;;;;;8.82;76.73;102210.78;5038188;28;20042;-64
2022/03/17 05:46:36;;;;;;;11.77;5.05;;;;;;;8.93;76.53;102223.50;5043205;28;20060;-63
2022/03/17 05:49:03;;;;;;;10.52;5.68;;;;;;;8.79;76.61;102222.31;5050194;28;20049;-63
2022/03/17 05:51:31;;;;;;;9.82;5.10;;;;;;;8.90;76.33;102226.78;5032894;28;20064;-63
2022/03/17 05:53:58;;;;;;;11.85;5.30;;;;;;;9.13;75.33;102223.59;5037462;28;20528;-63
2022/03/17 05:56:25;;;;;;;11.25;5.18;;;;;;;8.99;75.64;102219.72;5038323;28;20092;-63
2022/03/17 05:58:52;;;;;;;9.30;5.05;;;;;;;8.90;76.49;102240.53;5031516;28;20060;-64
2022/03/17 06:01:21;;;;;;;11.07;5.05;;;;;;;8.71;76.24;102249.47;5036407;28;20080;-62
2022/03/17 06:03:49;;;;;;;9.88;5.55;;;;;;;8.55;77.10;102253.19;5033444;28;20511;-63
2022/03/17 06:06:16;;;;;;;14.00;5.38;;;;;;;8.51;77.40;102254.78;5036903;28;20053;-63
2022/03/17 06:08:43;;;;;;;12.43;5.15;;;;;;;8.46;76.98;102254.75;5037384;28;20045;-62
2022/03/17 06:11:11;;;;;;;10.45;5.18;;;;;;;8.48;77.38;102247.91;5038081;28;20058;-62
2022/03/17 06:13:39;;;;;;;10.52;4.90;;;;;;;8.67;76.91;102259.31;5036452;28;20068;-62
2022/03/17 06:16:07;;;;;;;11.00;6.00;;;;;;;8.52;77.26;102268.28;5037929;28;20555;-62
2022/03/17 06:18:34;;;;;;;9.00;4.25;;;;;;;8.81;76.36;102274.25;5029955;28;20076;-63
2022/03/17 06:21:02;;;;;;;11.05;5.18;;;;;;;8.67;76.28;102276.63;5037225;28;20049;-63
2022/03/17 06:23:29;;;;;;;11.55;4.93;;;;;;;8.51;77.50;102283.06;5037339;28;20049;-62
2022/03/17 06:25:56;;;;;;;10.23;4.78;;;;;;;8.20;77.43;102294.84;5037783;28;20532;-64
2022/03/17 06:28:24;;;;;;;12.05;5.40;;;;;;;8.24;77.96;102303.41;5035716;28;20066;-63
2022/03/17 06:30:51;;;;;;;14.18;4.70;;;;;;;8.38;76.62;102301.91;5036268;28;20049;-63
2022/03/17 06:33:19;;;;;;;8.48;4.30;;;;;;;8.40;75.98;102305.22;5048203;28;20064;-62
2022/03/17 06:35:46;;;;;;;10.35;4.78;;;;;;;8.42;75.69;102314.84;5037425;28;20053;-62
2022/03/17 06:38:13;;;;;;;8.00;4.55;;;;;;;8.19;75.62;102322.53;5037003;28;20049;-63
2022/03/17 06:40:41;;;;;;;11.93;4.43;;;;;;;8.13;76.22;102338.13;5043686;28;20528;-62
2022/03/17 06:43:08;;;;;;;9.80;4.65;;;;;;;8.01;74.83;102345.69;5036846;28;20125;-60
2022/03/17 06:45:36;;;;;;;8.15;4.00;;;;;;;8.05;74.42;102348.72;5037394;28;20064;-62
2022/03/17 06:48:03;;;;;;;9.15;3.50;;;;;;;7.94;73.99;102347.78;5036721;28;20060;-62
2022/03/17 06:50:31;;;;;;;6.88;3.83;;;;;;;7.84;74.34;102350.41;5036664;28;20053;-62
2022/03/17 06:52:58;;;;;;;6.57;3.53;;;;;;;7.93;73.46;102362.59;5034944;28;20053;-64
2022/03/17 06:55:26;;;;;;;12.43;3.92;;;;;;;8.02;73.40;102369.28;5036666;28;20056;-63
2022/03/17 06:57:53;;;;;;;9.05;4.07;;;;;;;7.93;73.15;102371.63;5037013;28;20052;-65
2022/03/17 07:00:21;;;;;;;8.35;3.30;;;;;;;7.97;72.55;102382.94;5034505;28;20049;-63
2022/03/17 07:02:48;;;;;;;8.32;3.67;;;;;;;7.79;72.74;102364.88;5030181;28;20050;-62
2022/03/17 07:05:16;;;;;;;7.55;3.72;;;;;;;7.76;73.39;102390.06;5036706;28;20240;-62
2022/03/17 07:07:43;;;;;;;8.02;3.83;;;;;;;7.81;73.20;102384.66;5037478;28;20053;-62
2022/03/17 07:10:13;;;;;;;9.00;4.00;;;;;;;7.81;73.41;102395.63;5036375;28;20045;-62
2022/03/17 07:12:41;;;;;;;7.78;4.18;;;;;;;7.79;73.10;102397.78;5042246;28;20053;-62
2022/03/17 07:15:10;;;;;;;12.13;5.00;;;;;;;7.87;73.18;102391.03;5019590;28;20527;-62
2022/03/17 07:17:39;;;;;;;11.45;4.22;;;;;;;8.02;73.27;102406.88;5036057;28;20045;-62
2022/03/17 07:20:15;;;;;;;13.18;4.53;;;;;;;8.13;71.94;102397.66;5031234;28;20581;-62
2022/03/17 07:22:44;;;;;;;11.50;4.68;;;;;;;8.05;72.28;102415.44;5032717;28;20052;-62
2022/03/17 07:25:11;;;;;;;11.55;4.32;;;;;;;8.16;72.19;102419.13;5062706;28;20057;-63
2022/03/17 07:27:41;;;;;;;10.30;4.50;;;;;;;8.10;72.32;102418.25;5030707;28;20049;-62
2022/03/17 07:30:22;;;;;;;9.32;3.97;;;;;;;8.13;71.97;102425.13;5063111;28;20052;-63
2022/03/17 07:32:55;;;;;;;9.05;4.65;;;;;;;7.93;72.45;102433.94;5035730;28;20045;-62
2022/03/17 07:35:22;;;;;;;10.13;4.57;;;;;;;7.90;73.05;102434.41;5032390;28;20084;-62
2022/03/17 07:37:50;;;;;;;10.82;4.90;;;;;;;7.94;72.91;102438.31;5031572;28;20408;-62
2022/03/17 07:40:18;;;;;;;13.18;5.05;;;;;;;8.02;73.06;102439.81;5031781;28;20049;-62
2022/03/17 07:42:46;;;;;;;9.65;4.78;;;;;;;7.89;73.14;102446.50;5033834;28;20056;-62
2022/03/17 07:45:27;;;;;;;12.00;4.63;;;;;;;7.84;73.31;102441.78;5026187;28;20053;-62
2022/03/17 07:48:09;;;;;;;12.50;4.90;;;;;;;8.15;72.38;102439.41;5062372;28;20049;-63
2022/03/17 07:50:44;;;;;;;12.45;4.78;;;;;;;8.24;72.01;102446.16;5015089;28;20056;-61
2022/03/17 07:53:12;;;;;;;10.40;4.93;;;;;;;7.98;72.23;102447.72;5035448;28;20050;-64
2022/03/17 07:55:40;;;;;;;9.48;5.30;;;;;;;8.09;72.47;102457.72;5044066;28;20056;-62
2022/03/17 07:58:10;;;;;;;12.88;5.20;;;;;;;7.90;72.76;102454.47;5014401;28;20145;-62
2022/03/17 08:00:39;;;;;;;8.05;4.75;;;;;;;7.91;72.63;102471.75;5034224;28;20041;-63
2022/03/17 08:03:07;;;;;;;11.73;5.37;;;;;;;7.99;72.79;102471.31;5032867;28;20060;-65
2022/03/17 08:05:34;;;;;;;12.32;5.45;;;;;;;8.08;72.23;102480.78;5034475;28;20049;-64
2022/03/17 08:08:02;;;;;;;15.45;5.70;;;;;;;7.89;73.50;102473.94;5036914;28;20060;-62
2022/03/17 08:10:29;;;;;;;9.18;5.53;;;;;;;7.84;73.41;102476.59;5035595;28;20041;-62
2022/03/17 08:12:57;;;;;;;10.63;5.22;;;;;;;8.00;72.55;102483.97;5065800;28;20049;-61
2022/03/17 08:15:25;;;;;;;12.13;5.68;;;;;;;8.17;71.76;102486.66;5035220;28;20400;-62
2022/03/17 08:17:54;;;;;;;12.85;4.88;;;;;;;8.17;71.83;102487.50;5031847;28;20986;-62
2022/03/17 08:20:21;;;;;;;14.05;6.63;;;;;;;8.43;71.34;102495.00;5030685;28;20037;-65
2022/03/17 08:22:50;;;;;;;9.38;5.10;;;;;;;8.43;73.30;102505.97;5034882;28;20045;-64
2022/03/17 08:25:17;;;;;;;10.02;5.80;;;;;;;8.05;72.49;102511.47;5025240;28;20066;-65
2022/03/17 08:27:45;;;;;;;16.25;5.28;;;;;;;8.00;72.85;102506.72;5029251;28;20468;-65
2022/03/17 08:30:12;;;;;;;12.50;5.80;;;;;;;8.33;71.63;102511.34;5031653;28;20512;-65
2022/03/17 08:32:40;;;;;;;16.80;5.40;;;;;;;8.02;72.99;102519.38;5031698;28;20056;-63
2022/03/17 08:35:09;;;;;;;12.43;5.70;;;;;;;7.82;73.48;102517.16;5033819;28;20052;-62
2022/03/17 08:37:45;;;;;;;14.30;6.00;;;;;;;8.13;72.58;102522.00;5033159;28;20049;-62
2022/03/17 08:40:14;;;;;;;18.30;6.35;;;;;;;8.38;71.66;102533.38;5028815;28;20053;-62
2022/03/17 08:42:42;;;;;;;10.13;5.43;;;;;;;8.55;70.67;102534.16;5030062;28;20049;-63
2022/03/17 08:50:44;;;;;;;9.70;5.10;;;;;;;8.45;69.08;102549.66;5034361;28;20034;-62
2022/03/17 08:53:11;;;;;;;10.65;5.97;;;;;;;8.35;68.40;102566.81;5031173;28;20057;-66
2022/03/17 08:55:39;;;;;;;18.90;6.00;;;;;;;8.39;67.76;102559.75;5035538;28;20380;-63
2022/03/17 08:58:07;;;;;;;12.55;5.60;;;;;;;8.39;68.68;102575.38;5032439;28;20163;-63
2022/03/17 09:00:35;;;;;;;13.85;6.05;;;;;;;8.04;69.91;102577.59;5030162;28;20053;-62
2022/03/17 09:03:03;;;;;;;14.27;5.70;;;;;;;8.47;68.60;102577.69;5033276;28;20609;-63
2022/03/17 09:05:33;;;;;;;11.27;5.35;;;;;;;8.62;67.45;102570.50;5034354;28;20431;-64
2022/03/17 09:08:05;;;;;;;17.42;5.82;;;;;;;8.21;69.03;102581.94;5034354;28;20678;-63
2022/03/17 09:10:36;;;;;;;11.95;6.10;;;;;;;8.41;67.96;102587.78;5066228;28;20539;-63
2022/03/17 09:13:07;;;;;;;11.48;5.60;;;;;;;8.31;67.94;102589.53;5034671;28;20049;-63
2022/03/17 09:15:38;;;;;;;11.32;6.72;;;;;;;8.35;67.73;102580.53;5033411;28;20050;-62
2022/03/17 09:18:07;;;;;;;12.25;5.65;;;;;;;8.33;67.72;102590.97;5033706;28;20061;-65
2022/03/17 09:20:37;;;;;;;11.60;6.10;;;;;;;8.46;67.89;102584.25;5033230;28;20046;-62
2022/03/17 09:23:04;;;;;;;18.63;6.05;;;;;;;8.42;67.79;102586.69;5033447;28;20069;-64
2022/03/17 09:25:34;;;;;;;12.68;6.03;;;;;;;8.76;67.13;102602.00;5031930;28;20049;-64
2022/03/17 09:28:02;;;;;;;10.73;5.75;;;;;;;8.50;67.29;102600.00;5034180;28;20045;-63
2022/03/17 09:30:30;;;;;;;10.95;6.28;;;;;;;8.52;67.11;102603.31;5032715;28;20133;-63
2022/03/17 09:32:59;;;;;;;12.50;6.13;;;;;;;8.42;67.45;102611.41;5032595;28;20042;-62
2022/03/17 09:35:26;;;;;;;12.73;5.40;;;;;;;8.63;67.15;102618.03;5034018;28;20041;-62
2022/03/17 09:37:54;;;;;;;15.57;6.60;;;;;;;8.59;67.32;102614.13;5031476;28;20053;-62
2022/03/17 09:40:22;;;;;;;14.15;6.55;;;;;;;8.96;66.92;102613.22;5034441;28;20065;-62
2022/03/17 09:42:49;;;;;;;15.55;6.80;;;;;;;8.67;66.77;102625.50;5034785;28;20053;-63
2022/03/17 09:45:17;;;;;;;20.85;7.75;;;;;;;8.64;66.82;102622.41;5034430;28;20046;-64
2022/03/17 09:47:45;;;;;;;16.38;6.60;;;;;;;8.92;66.71;102628.56;5034386;28;20048;-63
2022/03/17 09:50:15;;;;;;;15.23;5.75;;;;;;;9.09;69.91;102615.59;5032706;28;20053;-62
2022/03/17 09:52:44;;;;;;;13.45;7.35;;;;;;;8.95;66.19;102622.56;5032818;28;20041;-63
2022/03/17 09:55:11;;;;;;;16.05;6.88;;;;;;;9.15;65.94;102621.13;5031592;28;20515;-63
2022/03/17 09:57:42;;;;;;;16.90;6.60;;;;;;;9.06;66.23;102629.84;5034041;28;20370;-63
2022/03/17 10:00:12;;;;;;;14.27;6.93;;;;;;;8.67;66.97;102641.97;5034815;28;20046;-63
2022/03/17 10:02:39;;;;;;;11.35;6.82;;;;;;;8.63;67.37;102637.25;5035036;28;20045;-62
2022/03/17 10:05:11;;;;;;;13.52;6.57;;;;;;;8.73;67.33;102638.22;5028229;28;20041;-64
2022/03/17 10:07:39;;;;;;;10.43;6.28;;;;;;;8.48;67.65;102637.03;5032601;28;20060;-64
2022/03/17 10:10:08;;;;;;;15.43;6.90;;;;;;;8.56;67.60;102650.34;5033980;28;20460;-64
2022/03/17 10:12:35;;;;;;;16.10;6.68;;;;;;;8.29;68.48;102638.38;5032669;28;20044;-64
2022/03/17 10:15:05;;;;;;;15.00;7.65;;;;;;;8.51;67.64;102648.31;5023805;28;20061;-63
2022/03/17 10:17:41;;;;;;;17.85;7.47;;;;;;;8.78;67.58;102652.03;5035471;28;20405;-65
2022/03/17 10:20:18;;;;;;;16.77;7.60;;;;;;;8.88;67.07;102665.06;5064505;28;20049;-63
2022/03/17 10:22:54;;;;;;;13.85;7.63;;;;;;;8.62;67.31;102654.81;5037094;28;20068;-63
2022/03/17 10:25:23;;;;;;;17.30;7.65;;;;;;;8.71;67.27;102659.63;5037812;28;20504;-63
2022/03/17 10:27:54;;;;;;;16.30;7.50;;;;;;;9.05;66.52;102657.56;5035644;28;20068;-64
2022/03/17 10:30:34;;;;;;;15.63;7.78;;;;;;;8.98;66.73;102657.78;5035709;28;20064;-64
2022/03/17 10:33:03;;;;;;;10.95;7.30;;;;;;;8.99;66.28;102664.94;5036191;28;20048;-64
2022/03/17 10:35:36;;;;;;;17.30;8.02;;;;;;;9.28;66.15;102657.31;5036712;28;20068;-64
2022/03/17 10:38:17;;;;;;;13.18;7.68;;;;;;;8.85;66.51;102660.06;5037316;28;20408;-64
2022/03/17 10:40:59;;;;;;;11.43;7.25;;;;;;;8.98;66.71;102671.50;5037037;28;20046;-64
2022/03/17 10:43:29;;;;;;;14.38;7.85;;;;;;;9.24;65.97;102674.59;5037194;28;20056;-64
2022/03/17 10:46:15;;;;;;;13.82;8.50;;;;;;;9.12;65.26;102680.19;5035838;28;20048;-64
2022/03/17 10:49:06;;;;;;;18.10;8.82;;;;;;;8.92;66.94;102688.19;5035958;28;20053;-63
2022/03/17 10:51:35;;;;;;;14.52;8.20;;;;;;;9.26;66.16;102684.22;5035921;28;20458;-64
2022/03/17 10:54:03;;;;;;;15.82;8.30;;;;;;;9.16;66.44;102689.59;5036875;28;20056;-64
2022/03/17 10:56:31;;;;;;;20.38;8.15;;;;;;;9.13;66.77;102688.19;5038217;28;20053;-63
2022/03/17 10:58:59;;;;;;;18.27;8.27;;;;;;;9.35;65.21;102688.19;5034865;28;20041;-65
2022/03/17 11:01:46;;;;;;;16.67;8.63;;;;;;;9.00;66.09;102679.50;5036630;28;20034;-64
2022/03/17 11:04:14;;;;;;;17.02;7.63;;;;;;;9.37;65.55;102693.44;5034990;28;20045;-65
2022/03/17 11:06:41;;;;;;;11.98;7.80;;;;;;;9.30;65.24;102685.38;5033184;28;20480;-65
2022/03/17 11:09:10;;;;;;;16.23;7.95;;;;;;;9.41;65.59;102692.66;5034420;28;20049;-66
2022/03/17 11:11:38;;;;;;;18.42;7.53;;;;;;;9.78;64.41;102699.09;5036599;28;20053;-63
2022/03/17 11:14:06;;;;;;;13.70;7.47;;;;;;;9.48;64.39;102703.47;5036934;28;20076;-65
2022/03/17 11:16:36;;;;;;;12.50;7.20;;;;;;;9.17;65.88;102707.75;5036601;28;20055;-64
2022/03/17 11:19:06;;;;;;;18.58;8.25;;;;;;;9.43;65.40;102700.66;5036500;28;20054;-65
2022/03/17 11:21:34;;;;;;;17.33;7.93;;;;;;;9.46;63.82;102711.97;5032769;28;20057;-64
2022/03/17 11:24:05;;;;;;;14.25;7.80;;;;;;;9.17;65.50;102704.19;5071109;28;20429;-64
2022/03/17 11:26:37;;;;;;;12.07;7.13;;;;;;;9.30;65.02;102712.03;5033932;28;20513;-66
2022/03/17 11:29:07;;;;;;;12.20;6.68;;;;;;;9.09;64.45;102706.31;5032002;28;20476;-65
2022/03/17 11:31:54;;;;;;;11.30;6.63;;;;;;;9.21;64.87;102708.91;5030139;28;20622;-66
2022/03/17 11:34:47;;;;;;;17.90;6.70;;;;;;;9.15;64.66;102709.94;5036056;28;20046;-65
2022/03/17 11:37:27;;;;;;;14.90;6.78;;;;;;;9.28;64.20;102709.56;5030417;28;20080;-65
2022/03/17 11:39:59;;;;;;;13.82;7.30;;;;;;;9.13;64.26;102726.69;5034921;28;20058;-66
2022/03/17 11:42:56;;;;;;;14.93;7.03;;;;;;;9.01;64.29;102717.72;5030475;28;20056;-64
2022/03/17 11:45:37;;;;;;;12.35;6.70;;;;;;;9.32;63.22;102718.13;5022826;28;20046;-64
2022/03/17 11:48:10;;;;;;;11.88;6.88;;;;;;;8.97;63.62;102724.00;5030065;28;20041;-65